sensor_id;sensor_type;location;lat;lon;timestamp;P1;durP1;ratioP1;P2;durP2;ratioP2
78901;SDS011;70441;44.758;37.686;2023-06-24T00:00:42;8.05;;;2.88;;
78901;SDS011;70441;44.758;37.686;2023-06-24T00:01:44;10.55;;;3.45;;
78901;SDS011;70441;44.758;37.686;2023-06-24T00:02:46;9.05;;;3.20;;
78901;SDS011;70441;44.758;37.686;2023-06-24T00:03:47;15.48;;;3.45;;
78901;SDS011;70441;44.758;37.686;2023-06-24T00:04:50;11.48;;;3.50;;
78901;SDS011;70441;44.758;37.686;2023-06-24T00:05:53;9.43;;;3.10;;
78901;SDS011;70441;44.758;37.686;2023-06-24T00:06:59;9.57;;;3.45;;
78901;SDS011;70441;44.758;37.686;2023-06-24T00:08:01;9.70;;;3.25;;
78901;SDS011;70441;44.758;37.686;2023-06-24T00:09:08;7.47;;;2.88;;
78901;SDS011;70441;44.758;37.686;2023-06-24T00:10:13;9.02;;;4.32;;
78901;SDS011;70441;44.758;37.686;2023-06-24T00:11:15;7.68;;;3.47;;
78901;SDS011;70441;44.758;37.686;2023-06-24T00:12:22;10.13;;;3.58;;
78901;SDS011;70441;44.758;37.686;2023-06-24T00:13:24;14.02;;;3.78;;
78901;SDS011;70441;44.758;37.686;2023-06-24T00:14:26;9.40;;;3.47;;
78901;SDS011;70441;44.758;37.686;2023-06-24T00:15:33;11.88;;;3.38;;
78901;SDS011;70441;44.758;37.686;2023-06-24T00:16:41;6.30;;;3.20;;
78901;SDS011;70441;44.758;37.686;2023-06-24T00:17:42;8.30;;;3.28;;
78901;SDS011;70441;44.758;37.686;2023-06-24T00:18:44;11.02;;;3.97;;
78901;SDS011;70441;44.758;37.686;2023-06-24T00:19:46;12.10;;;3.25;;
78901;SDS011;70441;44.758;37.686;2023-06-24T00:20:47;10.75;;;3.60;;
78901;SDS011;70441;44.758;37.686;2023-06-24T00:21:50;8.45;;;3.35;;
78901;SDS011;70441;44.758;37.686;2023-06-24T00:22:53;10.02;;;3.10;;
78901;SDS011;70441;44.758;37.686;2023-06-24T00:23:54;8.05;;;3.13;;
78901;SDS011;70441;44.758;37.686;2023-06-24T00:24:56;9.68;;;3.20;;
78901;SDS011;70441;44.758;37.686;2023-06-24T00:25:59;7.63;;;3.20;;
78901;SDS011;70441;44.758;37.686;2023-06-24T00:27:02;9.23;;;2.95;;
78901;SDS011;70441;44.758;37.686;2023-06-24T00:28:03;9.07;;;3.03;;
78901;SDS011;70441;44.758;37.686;2023-06-24T00:29:11;7.72;;;2.80;;
78901;SDS011;70441;44.758;37.686;2023-06-24T00:30:12;6.97;;;2.72;;
78901;SDS011;70441;44.758;37.686;2023-06-24T00:31:14;9.65;;;2.92;;
78901;SDS011;70441;44.758;37.686;2023-06-24T00:32:16;7.07;;;2.80;;
78901;SDS011;70441;44.758;37.686;2023-06-24T00:33:18;10.02;;;2.97;;
78901;SDS011;70441;44.758;37.686;2023-06-24T00:34:21;11.43;;;3.22;;
78901;SDS011;70441;44.758;37.686;2023-06-24T00:35:26;7.82;;;2.42;;
78901;SDS011;70441;44.758;37.686;2023-06-24T00:36:27;11.90;;;3.17;;
78901;SDS011;70441;44.758;37.686;2023-06-24T00:37:29;11.20;;;3.42;;
78901;SDS011;70441;44.758;37.686;2023-06-24T00:38:31;7.43;;;2.78;;
78901;SDS011;70441;44.758;37.686;2023-06-24T00:40:34;9.50;;;3.75;;
78901;SDS011;70441;44.758;37.686;2023-06-24T00:41:36;10.30;;;3.00;;
78901;SDS011;70441;44.758;37.686;2023-06-24T00:42:38;6.97;;;2.78;;
78901;SDS011;70441;44.758;37.686;2023-06-24T00:43:40;9.35;;;3.30;;
78901;SDS011;70441;44.758;37.686;2023-06-24T00:44:47;11.02;;;2.92;;
78901;SDS011;70441;44.758;37.686;2023-06-24T00:45:50;9.68;;;2.95;;
78901;SDS011;70441;44.758;37.686;2023-06-24T00:47:55;11.05;;;2.90;;
78901;SDS011;70441;44.758;37.686;2023-06-24T00:50:01;10.95;;;3.03;;
78901;SDS011;70441;44.758;37.686;2023-06-24T00:51:02;8.68;;;2.80;;
78901;SDS011;70441;44.758;37.686;2023-06-24T00:52:04;7.43;;;2.92;;
78901;SDS011;70441;44.758;37.686;2023-06-24T00:53:07;9.77;;;2.85;;
78901;SDS011;70441;44.758;37.686;2023-06-24T00:54:09;10.60;;;2.83;;
78901;SDS011;70441;44.758;37.686;2023-06-24T00:55:12;7.28;;;2.90;;
78901;SDS011;70441;44.758;37.686;2023-06-24T00:56:16;10.25;;;2.67;;
78901;SDS011;70441;44.758;37.686;2023-06-24T00:57:20;6.40;;;2.55;;
78901;SDS011;70441;44.758;37.686;2023-06-24T00:58:25;10.05;;;2.90;;
78901;SDS011;70441;44.758;37.686;2023-06-24T01:00:32;6.22;;;2.70;;
78901;SDS011;70441;44.758;37.686;2023-06-24T01:01:35;9.70;;;2.72;;
78901;SDS011;70441;44.758;37.686;2023-06-24T01:02:37;7.88;;;3.08;;
78901;SDS011;70441;44.758;37.686;2023-06-24T01:03:39;10.55;;;3.50;;
78901;SDS011;70441;44.758;37.686;2023-06-24T01:04:41;8.35;;;3.45;;
78901;SDS011;70441;44.758;37.686;2023-06-24T01:05:49;9.32;;;3.95;;
78901;SDS011;70441;44.758;37.686;2023-06-24T01:06:51;8.93;;;3.42;;
78901;SDS011;70441;44.758;37.686;2023-06-24T01:07:58;8.40;;;3.25;;
78901;SDS011;70441;44.758;37.686;2023-06-24T01:09:06;8.15;;;3.42;;
78901;SDS011;70441;44.758;37.686;2023-06-24T01:10:09;10.43;;;3.45;;
78901;SDS011;70441;44.758;37.686;2023-06-24T01:11:18;12.48;;;3.92;;
78901;SDS011;70441;44.758;37.686;2023-06-24T01:12:25;10.27;;;3.65;;
78901;SDS011;70441;44.758;37.686;2023-06-24T01:13:32;8.48;;;3.30;;
78901;SDS011;70441;44.758;37.686;2023-06-24T01:14:39;12.10;;;3.42;;
78901;SDS011;70441;44.758;37.686;2023-06-24T01:15:46;13.77;;;3.60;;
78901;SDS011;70441;44.758;37.686;2023-06-24T01:16:59;8.82;;;3.28;;
78901;SDS011;70441;44.758;37.686;2023-06-24T01:18:18;7.18;;;3.35;;
78901;SDS011;70441;44.758;37.686;2023-06-24T01:33:05;8.88;;;3.35;;
78901;SDS011;70441;44.758;37.686;2023-06-24T01:34:22;8.57;;;3.20;;
78901;SDS011;70441;44.758;37.686;2023-06-24T01:35:53;8.27;;;3.20;;
78901;SDS011;70441;44.758;37.686;2023-06-24T01:38:31;10.27;;;3.45;;
78901;SDS011;70441;44.758;37.686;2023-06-24T01:39:48;9.77;;;3.22;;
78901;SDS011;70441;44.758;37.686;2023-06-24T01:41:00;8.75;;;3.10;;
78901;SDS011;70441;44.758;37.686;2023-06-24T01:42:11;9.13;;;3.17;;
78901;SDS011;70441;44.758;37.686;2023-06-24T01:43:22;12.18;;;3.45;;
78901;SDS011;70441;44.758;37.686;2023-06-24T01:44:30;13.30;;;3.15;;
78901;SDS011;70441;44.758;37.686;2023-06-24T01:45:45;9.05;;;2.85;;
78901;SDS011;70441;44.758;37.686;2023-06-24T01:46:59;9.07;;;3.35;;
78901;SDS011;70441;44.758;37.686;2023-06-24T01:49:32;7.80;;;3.20;;
78901;SDS011;70441;44.758;37.686;2023-06-24T01:54:32;17.38;;;5.13;;
78901;SDS011;70441;44.758;37.686;2023-06-24T01:55:36;14.30;;;4.95;;
78901;SDS011;70441;44.758;37.686;2023-06-24T02:02:25;21.02;;;5.38;;
78901;SDS011;70441;44.758;37.686;2023-06-24T02:04:06;16.00;;;6.47;;
78901;SDS011;70441;44.758;37.686;2023-06-24T02:05:49;17.52;;;7.07;;
78901;SDS011;70441;44.758;37.686;2023-06-24T02:09:22;36.45;;;10.48;;
78901;SDS011;70441;44.758;37.686;2023-06-24T02:12:51;37.63;;;11.63;;
78901;SDS011;70441;44.758;37.686;2023-06-24T02:14:31;22.73;;;9.57;;
78901;SDS011;70441;44.758;37.686;2023-06-24T02:15:33;23.40;;;9.75;;
78901;SDS011;70441;44.758;37.686;2023-06-24T02:16:46;22.95;;;11.15;;
78901;SDS011;70441;44.758;37.686;2023-06-24T02:18:25;25.98;;;10.18;;
78901;SDS011;70441;44.758;37.686;2023-06-24T02:20:05;21.58;;;10.13;;
78901;SDS011;70441;44.758;37.686;2023-06-24T02:23:57;15.05;;;5.85;;
78901;SDS011;70441;44.758;37.686;2023-06-24T02:25:05;20.08;;;7.50;;
78901;SDS011;70441;44.758;37.686;2023-06-24T02:26:44;21.30;;;8.07;;
78901;SDS011;70441;44.758;37.686;2023-06-24T02:27:48;16.60;;;6.75;;
78901;SDS011;70441;44.758;37.686;2023-06-24T02:30:44;18.77;;;4.70;;
78901;SDS011;70441;44.758;37.686;2023-06-24T02:35:33;23.52;;;5.88;;
78901;SDS011;70441;44.758;37.686;2023-06-24T02:36:34;26.67;;;6.53;;
78901;SDS011;70441;44.758;37.686;2023-06-24T02:37:42;15.25;;;5.30;;
78901;SDS011;70441;44.758;37.686;2023-06-24T02:39:35;13.35;;;5.05;;
78901;SDS011;70441;44.758;37.686;2023-06-24T02:40:42;14.98;;;5.40;;
78901;SDS011;70441;44.758;37.686;2023-06-24T02:41:46;18.42;;;5.40;;
78901;SDS011;70441;44.758;37.686;2023-06-24T02:42:53;11.15;;;5.07;;
78901;SDS011;70441;44.758;37.686;2023-06-24T02:44:00;10.23;;;4.40;;
78901;SDS011;70441;44.758;37.686;2023-06-24T02:45:07;9.75;;;3.42;;
78901;SDS011;70441;44.758;37.686;2023-06-24T02:46:16;9.20;;;3.25;;
78901;SDS011;70441;44.758;37.686;2023-06-24T02:47:19;9.48;;;3.80;;
78901;SDS011;70441;44.758;37.686;2023-06-24T02:48:21;12.52;;;4.03;;
78901;SDS011;70441;44.758;37.686;2023-06-24T02:49:28;8.85;;;4.70;;
78901;SDS011;70441;44.758;37.686;2023-06-24T02:50:36;7.78;;;4.20;;
78901;SDS011;70441;44.758;37.686;2023-06-24T02:52:16;20.55;;;5.50;;
78901;SDS011;70441;44.758;37.686;2023-06-24T02:53:18;9.23;;;4.57;;
78901;SDS011;70441;44.758;37.686;2023-06-24T02:54:27;11.00;;;5.13;;
78901;SDS011;70441;44.758;37.686;2023-06-24T02:56:05;10.23;;;5.00;;
78901;SDS011;70441;44.758;37.686;2023-06-24T02:57:15;13.38;;;5.18;;
78901;SDS011;70441;44.758;37.686;2023-06-24T02:58:45;10.55;;;5.07;;
78901;SDS011;70441;44.758;37.686;2023-06-24T02:59:59;12.82;;;5.97;;
78901;SDS011;70441;44.758;37.686;2023-06-24T03:01:26;11.13;;;4.43;;
78901;SDS011;70441;44.758;37.686;2023-06-24T03:02:36;12.73;;;4.00;;
78901;SDS011;70441;44.758;37.686;2023-06-24T03:03:45;6.90;;;3.35;;
78901;SDS011;70441;44.758;37.686;2023-06-24T03:04:57;14.30;;;4.47;;
78901;SDS011;70441;44.758;37.686;2023-06-24T03:06:08;12.90;;;3.72;;
78901;SDS011;70441;44.758;37.686;2023-06-24T03:07:19;7.18;;;3.60;;
78901;SDS011;70441;44.758;37.686;2023-06-24T03:08:27;8.68;;;3.40;;
78901;SDS011;70441;44.758;37.686;2023-06-24T03:09:36;23.20;;;5.60;;
78901;SDS011;70441;44.758;37.686;2023-06-24T03:10:43;7.30;;;3.58;;
78901;SDS011;70441;44.758;37.686;2023-06-24T03:11:57;9.55;;;3.55;;
78901;SDS011;70441;44.758;37.686;2023-06-24T03:13:13;8.98;;;3.75;;
78901;SDS011;70441;44.758;37.686;2023-06-24T03:14:19;8.15;;;3.38;;
78901;SDS011;70441;44.758;37.686;2023-06-24T03:15:57;8.68;;;3.47;;
78901;SDS011;70441;44.758;37.686;2023-06-24T03:17:56;6.57;;;3.25;;
78901;SDS011;70441;44.758;37.686;2023-06-24T03:19:55;10.43;;;3.17;;
78901;SDS011;70441;44.758;37.686;2023-06-24T03:21:02;12.38;;;3.63;;
78901;SDS011;70441;44.758;37.686;2023-06-24T03:22:11;13.75;;;3.53;;
78901;SDS011;70441;44.758;37.686;2023-06-24T03:23:12;14.13;;;4.65;;
78901;SDS011;70441;44.758;37.686;2023-06-24T03:24:14;9.85;;;3.80;;
78901;SDS011;70441;44.758;37.686;2023-06-24T03:25:24;14.40;;;4.38;;
78901;SDS011;70441;44.758;37.686;2023-06-24T03:26:35;12.15;;;3.90;;
78901;SDS011;70441;44.758;37.686;2023-06-24T03:27:39;12.80;;;3.88;;
78901;SDS011;70441;44.758;37.686;2023-06-24T03:28:46;21.13;;;4.85;;
78901;SDS011;70441;44.758;37.686;2023-06-24T03:29:56;15.13;;;4.32;;
78901;SDS011;70441;44.758;37.686;2023-06-24T03:31:23;11.93;;;4.00;;
78901;SDS011;70441;44.758;37.686;2023-06-24T03:34:59;11.23;;;3.83;;
78901;SDS011;70441;44.758;37.686;2023-06-24T03:36:38;13.75;;;4.53;;
78901;SDS011;70441;44.758;37.686;2023-06-24T03:37:41;11.98;;;4.05;;
78901;SDS011;70441;44.758;37.686;2023-06-24T03:38:48;9.48;;;4.10;;
78901;SDS011;70441;44.758;37.686;2023-06-24T03:41:18;11.00;;;4.47;;
78901;SDS011;70441;44.758;37.686;2023-06-24T03:42:19;17.67;;;4.70;;
78901;SDS011;70441;44.758;37.686;2023-06-24T03:43:57;16.08;;;4.75;;
78901;SDS011;70441;44.758;37.686;2023-06-24T03:48:21;9.52;;;4.15;;
78901;SDS011;70441;44.758;37.686;2023-06-24T03:49:23;13.02;;;4.35;;
78901;SDS011;70441;44.758;37.686;2023-06-24T03:50:30;15.07;;;4.60;;
78901;SDS011;70441;44.758;37.686;2023-06-24T03:51:58;11.88;;;3.75;;
78901;SDS011;70441;44.758;37.686;2023-06-24T03:53:00;12.35;;;4.38;;
78901;SDS011;70441;44.758;37.686;2023-06-24T03:54:12;9.85;;;4.25;;
78901;SDS011;70441;44.758;37.686;2023-06-24T03:55:13;10.18;;;3.88;;
78901;SDS011;70441;44.758;37.686;2023-06-24T03:56:20;8.25;;;3.95;;
78901;SDS011;70441;44.758;37.686;2023-06-24T03:57:22;8.93;;;3.50;;
78901;SDS011;70441;44.758;37.686;2023-06-24T03:59:00;10.48;;;3.67;;
78901;SDS011;70441;44.758;37.686;2023-06-24T04:00:02;9.35;;;3.40;;
78901;SDS011;70441;44.758;37.686;2023-06-24T04:01:53;9.15;;;3.28;;
78901;SDS011;70441;44.758;37.686;2023-06-24T04:04:20;10.13;;;3.60;;
78901;SDS011;70441;44.758;37.686;2023-06-24T04:05:28;11.63;;;3.63;;
78901;SDS011;70441;44.758;37.686;2023-06-24T04:06:35;8.68;;;3.00;;
78901;SDS011;70441;44.758;37.686;2023-06-24T04:07:36;7.95;;;3.55;;
78901;SDS011;70441;44.758;37.686;2023-06-24T04:09:55;8.68;;;3.75;;
78901;SDS011;70441;44.758;37.686;2023-06-24T04:12:06;9.98;;;3.20;;
78901;SDS011;70441;44.758;37.686;2023-06-24T04:13:09;8.60;;;3.70;;
78901;SDS011;70441;44.758;37.686;2023-06-24T04:14:10;8.63;;;3.55;;
78901;SDS011;70441;44.758;37.686;2023-06-24T04:15:18;11.77;;;3.78;;
78901;SDS011;70441;44.758;37.686;2023-06-24T04:16:19;11.63;;;4.00;;
78901;SDS011;70441;44.758;37.686;2023-06-24T04:17:26;17.35;;;3.72;;
78901;SDS011;70441;44.758;37.686;2023-06-24T04:18:28;17.27;;;4.07;;
78901;SDS011;70441;44.758;37.686;2023-06-24T04:19:30;13.07;;;3.90;;
78901;SDS011;70441;44.758;37.686;2023-06-24T04:20:36;11.90;;;3.92;;
78901;SDS011;70441;44.758;37.686;2023-06-24T04:21:41;12.73;;;3.50;;
78901;SDS011;70441;44.758;37.686;2023-06-24T04:22:48;10.57;;;4.13;;
78901;SDS011;70441;44.758;37.686;2023-06-24T04:23:56;12.25;;;3.50;;
78901;SDS011;70441;44.758;37.686;2023-06-24T04:25:05;13.30;;;3.83;;
78901;SDS011;70441;44.758;37.686;2023-06-24T04:26:07;7.93;;;3.10;;
78901;SDS011;70441;44.758;37.686;2023-06-24T04:29:12;12.15;;;3.50;;
78901;SDS011;70441;44.758;37.686;2023-06-24T04:36:46;9.65;;;3.80;;
78901;SDS011;70441;44.758;37.686;2023-06-24T04:41:41;13.60;;;4.05;;
78901;SDS011;70441;44.758;37.686;2023-06-24T04:46:38;12.02;;;3.30;;
78901;SDS011;70441;44.758;37.686;2023-06-24T04:51:31;24.63;;;4.28;;
78901;SDS011;70441;44.758;37.686;2023-06-24T04:52:58;17.15;;;4.40;;
78901;SDS011;70441;44.758;37.686;2023-06-24T04:54:08;10.00;;;3.80;;
78901;SDS011;70441;44.758;37.686;2023-06-24T04:55:46;16.17;;;4.40;;
78901;SDS011;70441;44.758;37.686;2023-06-24T04:56:53;7.15;;;2.78;;
78901;SDS011;70441;44.758;37.686;2023-06-24T05:02:00;11.57;;;3.47;;
78901;SDS011;70441;44.758;37.686;2023-06-24T05:03:37;15.38;;;4.43;;
78901;SDS011;70441;44.758;37.686;2023-06-24T05:04:39;9.20;;;3.40;;
78901;SDS011;70441;44.758;37.686;2023-06-24T05:05:45;8.02;;;3.25;;
78901;SDS011;70441;44.758;37.686;2023-06-24T05:06:52;8.25;;;2.72;;
78901;SDS011;70441;44.758;37.686;2023-06-24T05:08:30;19.20;;;4.45;;
78901;SDS011;70441;44.758;37.686;2023-06-24T05:09:32;11.98;;;3.55;;
78901;SDS011;70441;44.758;37.686;2023-06-24T05:13:37;8.60;;;3.40;;
78901;SDS011;70441;44.758;37.686;2023-06-24T05:15:14;12.57;;;3.55;;
78901;SDS011;70441;44.758;37.686;2023-06-24T05:16:16;8.88;;;3.10;;
78901;SDS011;70441;44.758;37.686;2023-06-24T05:17:23;10.52;;;3.05;;
78901;SDS011;70441;44.758;37.686;2023-06-24T05:18:36;9.27;;;3.72;;
78901;SDS011;70441;44.758;37.686;2023-06-24T05:20:39;7.35;;;3.05;;
78901;SDS011;70441;44.758;37.686;2023-06-24T05:21:47;9.32;;;3.50;;
78901;SDS011;70441;44.758;37.686;2023-06-24T05:23:24;14.00;;;4.65;;
78901;SDS011;70441;44.758;37.686;2023-06-24T05:31:22;33.40;;;6.60;;
78901;SDS011;70441;44.758;37.686;2023-06-24T05:32:29;7.75;;;3.22;;
78901;SDS011;70441;44.758;37.686;2023-06-24T05:33:36;8.75;;;3.38;;
78901;SDS011;70441;44.758;37.686;2023-06-24T05:34:41;19.05;;;4.47;;
78901;SDS011;70441;44.758;37.686;2023-06-24T05:35:46;8.90;;;3.38;;
78901;SDS011;70441;44.758;37.686;2023-06-24T05:36:48;8.38;;;2.65;;
78901;SDS011;70441;44.758;37.686;2023-06-24T05:37:55;11.07;;;3.53;;
78901;SDS011;70441;44.758;37.686;2023-06-24T05:39:02;10.65;;;3.00;;
78901;SDS011;70441;44.758;37.686;2023-06-24T05:40:09;10.00;;;3.00;;
78901;SDS011;70441;44.758;37.686;2023-06-24T05:41:18;8.13;;;2.63;;
78901;SDS011;70441;44.758;37.686;2023-06-24T05:42:20;8.30;;;3.20;;
78901;SDS011;70441;44.758;37.686;2023-06-24T05:43:29;37.25;;;7.75;;
78901;SDS011;70441;44.758;37.686;2023-06-24T05:44:30;9.20;;;3.63;;
78901;SDS011;70441;44.758;37.686;2023-06-24T05:45:32;15.52;;;4.43;;
78901;SDS011;70441;44.758;37.686;2023-06-24T05:46:34;30.17;;;4.95;;
78901;SDS011;70441;44.758;37.686;2023-06-24T05:47:37;10.15;;;2.85;;
78901;SDS011;70441;44.758;37.686;2023-06-24T05:48:39;11.35;;;2.92;;
78901;SDS011;70441;44.758;37.686;2023-06-24T05:49:41;8.32;;;2.85;;
78901;SDS011;70441;44.758;37.686;2023-06-24T05:50:42;9.93;;;2.90;;
78901;SDS011;70441;44.758;37.686;2023-06-24T05:51:44;7.63;;;3.03;;
78901;SDS011;70441;44.758;37.686;2023-06-24T05:52:45;12.43;;;3.10;;
78901;SDS011;70441;44.758;37.686;2023-06-24T05:53:47;10.10;;;2.90;;
78901;SDS011;70441;44.758;37.686;2023-06-24T05:54:49;9.05;;;3.33;;
78901;SDS011;70441;44.758;37.686;2023-06-24T05:55:50;18.55;;;4.03;;
78901;SDS011;70441;44.758;37.686;2023-06-24T05:56:57;10.07;;;3.17;;
78901;SDS011;70441;44.758;37.686;2023-06-24T05:57:58;11.95;;;4.00;;
78901;SDS011;70441;44.758;37.686;2023-06-24T05:59:00;8.18;;;2.80;;
78901;SDS011;70441;44.758;37.686;2023-06-24T06:00:02;13.80;;;3.75;;
78901;SDS011;70441;44.758;37.686;2023-06-24T06:01:16;10.15;;;3.28;;
78901;SDS011;70441;44.758;37.686;2023-06-24T06:02:18;7.28;;;3.13;;
78901;SDS011;70441;44.758;37.686;2023-06-24T06:03:19;6.85;;;3.28;;
78901;SDS011;70441;44.758;37.686;2023-06-24T06:04:27;7.68;;;3.22;;
78901;SDS011;70441;44.758;37.686;2023-06-24T06:05:29;10.05;;;3.47;;
78901;SDS011;70441;44.758;37.686;2023-06-24T06:06:31;11.55;;;4.07;;
78901;SDS011;70441;44.758;37.686;2023-06-24T06:07:33;12.73;;;4.20;;
78901;SDS011;70441;44.758;37.686;2023-06-24T06:08:35;13.32;;;3.78;;
78901;SDS011;70441;44.758;37.686;2023-06-24T06:09:37;17.40;;;5.45;;
78901;SDS011;70441;44.758;37.686;2023-06-24T06:10:39;12.20;;;3.60;;
78901;SDS011;70441;44.758;37.686;2023-06-24T06:11:40;8.85;;;3.50;;
78901;SDS011;70441;44.758;37.686;2023-06-24T06:12:43;9.07;;;3.33;;
78901;SDS011;70441;44.758;37.686;2023-06-24T06:13:45;11.20;;;3.65;;
78901;SDS011;70441;44.758;37.686;2023-06-24T06:14:46;11.35;;;3.80;;
78901;SDS011;70441;44.758;37.686;2023-06-24T06:15:48;8.68;;;3.20;;
78901;SDS011;70441;44.758;37.686;2023-06-24T06:16:50;10.13;;;3.55;;
78901;SDS011;70441;44.758;37.686;2023-06-24T06:17:52;10.52;;;3.08;;
78901;SDS011;70441;44.758;37.686;2023-06-24T06:19:55;71.93;;;13.32;;
78901;SDS011;70441;44.758;37.686;2023-06-24T06:20:57;10.73;;;3.22;;
78901;SDS011;70441;44.758;37.686;2023-06-24T06:21:59;8.52;;;3.13;;
78901;SDS011;70441;44.758;37.686;2023-06-24T06:23:06;6.85;;;3.05;;
78901;SDS011;70441;44.758;37.686;2023-06-24T06:24:08;13.77;;;3.60;;
78901;SDS011;70441;44.758;37.686;2023-06-24T06:25:10;17.20;;;4.30;;
78901;SDS011;70441;44.758;37.686;2023-06-24T06:26:11;9.98;;;3.50;;
78901;SDS011;70441;44.758;37.686;2023-06-24T06:27:13;10.68;;;3.65;;
78901;SDS011;70441;44.758;37.686;2023-06-24T06:28:14;12.30;;;3.38;;
78901;SDS011;70441;44.758;37.686;2023-06-24T06:29:16;13.75;;;3.88;;
78901;SDS011;70441;44.758;37.686;2023-06-24T06:30:18;12.52;;;3.83;;
78901;SDS011;70441;44.758;37.686;2023-06-24T06:31:19;8.60;;;3.20;;
78901;SDS011;70441;44.758;37.686;2023-06-24T06:32:23;9.25;;;3.42;;
78901;SDS011;70441;44.758;37.686;2023-06-24T06:33:25;9.02;;;3.30;;
78901;SDS011;70441;44.758;37.686;2023-06-24T06:34:27;34.80;;;5.88;;
78901;SDS011;70441;44.758;37.686;2023-06-24T06:35:33;13.30;;;4.30;;
78901;SDS011;70441;44.758;37.686;2023-06-24T06:36:36;17.83;;;4.13;;
78901;SDS011;70441;44.758;37.686;2023-06-24T06:37:49;14.80;;;4.10;;
78901;SDS011;70441;44.758;37.686;2023-06-24T06:38:55;11.95;;;3.50;;
78901;SDS011;70441;44.758;37.686;2023-06-24T06:39:56;13.40;;;3.88;;
78901;SDS011;70441;44.758;37.686;2023-06-24T06:40:58;23.65;;;4.38;;
78901;SDS011;70441;44.758;37.686;2023-06-24T06:42:05;8.45;;;2.80;;
78901;SDS011;70441;44.758;37.686;2023-06-24T06:43:12;11.73;;;3.95;;
78901;SDS011;70441;44.758;37.686;2023-06-24T06:44:15;14.60;;;4.40;;
78901;SDS011;70441;44.758;37.686;2023-06-24T06:45:17;9.25;;;3.85;;
78901;SDS011;70441;44.758;37.686;2023-06-24T06:46:20;8.55;;;3.17;;
78901;SDS011;70441;44.758;37.686;2023-06-24T06:47:22;9.52;;;3.40;;
78901;SDS011;70441;44.758;37.686;2023-06-24T06:48:24;10.88;;;3.78;;
78901;SDS011;70441;44.758;37.686;2023-06-24T06:49:25;10.45;;;3.55;;
78901;SDS011;70441;44.758;37.686;2023-06-24T06:50:27;16.05;;;4.32;;
78901;SDS011;70441;44.758;37.686;2023-06-24T06:52:30;9.80;;;3.55;;
78901;SDS011;70441;44.758;37.686;2023-06-24T06:53:32;9.35;;;3.33;;
78901;SDS011;70441;44.758;37.686;2023-06-24T06:54:34;8.23;;;3.60;;
78901;SDS011;70441;44.758;37.686;2023-06-24T06:55:36;11.55;;;3.78;;
78901;SDS011;70441;44.758;37.686;2023-06-24T06:56:38;12.60;;;3.28;;
78901;SDS011;70441;44.758;37.686;2023-06-24T06:57:40;18.45;;;4.57;;
78901;SDS011;70441;44.758;37.686;2023-06-24T06:58:42;10.43;;;3.85;;
78901;SDS011;70441;44.758;37.686;2023-06-24T06:59:44;11.15;;;3.47;;
78901;SDS011;70441;44.758;37.686;2023-06-24T07:00:45;8.98;;;3.60;;
78901;SDS011;70441;44.758;37.686;2023-06-24T07:02:49;14.70;;;4.32;;
78901;SDS011;70441;44.758;37.686;2023-06-24T07:03:50;13.10;;;3.95;;
78901;SDS011;70441;44.758;37.686;2023-06-24T07:04:52;7.72;;;3.40;;
78901;SDS011;70441;44.758;37.686;2023-06-24T07:05:54;9.23;;;3.45;;
78901;SDS011;70441;44.758;37.686;2023-06-24T07:06:55;10.38;;;4.07;;
78901;SDS011;70441;44.758;37.686;2023-06-24T07:07:57;8.75;;;3.42;;
78901;SDS011;70441;44.758;37.686;2023-06-24T07:08:59;12.55;;;4.32;;
78901;SDS011;70441;44.758;37.686;2023-06-24T07:10:00;9.82;;;3.20;;
78901;SDS011;70441;44.758;37.686;2023-06-24T07:11:02;7.18;;;3.22;;
78901;SDS011;70441;44.758;37.686;2023-06-24T07:13:06;14.23;;;3.85;;
78901;SDS011;70441;44.758;37.686;2023-06-24T07:14:09;7.22;;;3.05;;
78901;SDS011;70441;44.758;37.686;2023-06-24T07:15:11;12.30;;;3.20;;
78901;SDS011;70441;44.758;37.686;2023-06-24T07:16:13;10.63;;;3.25;;
78901;SDS011;70441;44.758;37.686;2023-06-24T07:17:14;17.40;;;3.60;;
78901;SDS011;70441;44.758;37.686;2023-06-24T07:18:16;11.18;;;3.38;;
78901;SDS011;70441;44.758;37.686;2023-06-24T07:19:18;9.85;;;3.80;;
78901;SDS011;70441;44.758;37.686;2023-06-24T07:20:26;11.00;;;3.20;;
78901;SDS011;70441;44.758;37.686;2023-06-24T07:21:35;17.73;;;4.55;;
78901;SDS011;70441;44.758;37.686;2023-06-24T07:22:37;10.13;;;3.60;;
78901;SDS011;70441;44.758;37.686;2023-06-24T07:23:38;9.20;;;3.60;;
78901;SDS011;70441;44.758;37.686;2023-06-24T07:24:41;10.25;;;3.30;;
78901;SDS011;70441;44.758;37.686;2023-06-24T07:25:43;12.15;;;3.47;;
78901;SDS011;70441;44.758;37.686;2023-06-24T07:26:44;7.45;;;3.30;;
78901;SDS011;70441;44.758;37.686;2023-06-24T07:27:46;15.23;;;3.50;;
78901;SDS011;70441;44.758;37.686;2023-06-24T07:28:47;10.48;;;3.55;;
78901;SDS011;70441;44.758;37.686;2023-06-24T07:29:49;9.07;;;3.63;;
78901;SDS011;70441;44.758;37.686;2023-06-24T07:30:51;13.88;;;4.30;;
78901;SDS011;70441;44.758;37.686;2023-06-24T07:31:52;18.75;;;4.20;;
78901;SDS011;70441;44.758;37.686;2023-06-24T07:32:54;9.02;;;3.00;;
78901;SDS011;70441;44.758;37.686;2023-06-24T07:33:56;11.98;;;3.60;;
78901;SDS011;70441;44.758;37.686;2023-06-24T07:34:57;6.60;;;3.17;;
78901;SDS011;70441;44.758;37.686;2023-06-24T07:35:59;15.32;;;5.47;;
78901;SDS011;70441;44.758;37.686;2023-06-24T07:37:00;16.13;;;3.25;;
78901;SDS011;70441;44.758;37.686;2023-06-24T07:38:02;9.70;;;3.58;;
78901;SDS011;70441;44.758;37.686;2023-06-24T07:39:04;8.88;;;3.30;;
78901;SDS011;70441;44.758;37.686;2023-06-24T07:40:06;7.78;;;3.20;;
78901;SDS011;70441;44.758;37.686;2023-06-24T07:41:09;9.57;;;3.50;;
78901;SDS011;70441;44.758;37.686;2023-06-24T07:42:10;14.38;;;3.78;;
78901;SDS011;70441;44.758;37.686;2023-06-24T07:43:12;11.98;;;4.28;;
78901;SDS011;70441;44.758;37.686;2023-06-24T07:44:13;8.23;;;3.17;;
78901;SDS011;70441;44.758;37.686;2023-06-24T07:45:15;9.38;;;3.20;;
78901;SDS011;70441;44.758;37.686;2023-06-24T07:46:17;8.65;;;3.25;;
78901;SDS011;70441;44.758;37.686;2023-06-24T07:47:18;9.32;;;3.17;;
78901;SDS011;70441;44.758;37.686;2023-06-24T07:48:20;6.18;;;3.17;;
78901;SDS011;70441;44.758;37.686;2023-06-24T07:49:22;7.70;;;3.22;;
78901;SDS011;70441;44.758;37.686;2023-06-24T07:50:23;12.48;;;3.60;;
78901;SDS011;70441;44.758;37.686;2023-06-24T07:51:25;9.40;;;3.30;;
78901;SDS011;70441;44.758;37.686;2023-06-24T07:52:28;12.55;;;3.78;;
78901;SDS011;70441;44.758;37.686;2023-06-24T07:53:29;9.35;;;3.83;;
78901;SDS011;70441;44.758;37.686;2023-06-24T07:54:31;7.22;;;3.22;;
78901;SDS011;70441;44.758;37.686;2023-06-24T07:55:33;7.05;;;3.00;;
78901;SDS011;70441;44.758;37.686;2023-06-24T07:56:34;8.25;;;3.72;;
78901;SDS011;70441;44.758;37.686;2023-06-24T07:57:36;17.10;;;5.13;;
78901;SDS011;70441;44.758;37.686;2023-06-24T07:58:37;8.40;;;3.40;;
78901;SDS011;70441;44.758;37.686;2023-06-24T07:59:39;13.18;;;3.45;;
78901;SDS011;70441;44.758;37.686;2023-06-24T08:00:40;8.23;;;3.80;;
78901;SDS011;70441;44.758;37.686;2023-06-24T08:01:43;10.68;;;4.00;;
78901;SDS011;70441;44.758;37.686;2023-06-24T08:02:45;7.95;;;3.42;;
78901;SDS011;70441;44.758;37.686;2023-06-24T08:03:46;8.90;;;3.50;;
78901;SDS011;70441;44.758;37.686;2023-06-24T08:04:48;7.63;;;3.47;;
78901;SDS011;70441;44.758;37.686;2023-06-24T08:05:49;8.77;;;3.30;;
78901;SDS011;70441;44.758;37.686;2023-06-24T08:06:51;8.27;;;3.58;;